CheckWX is a tool to help pilots better visualize weather data.  It is not intended as a substitute for an official pre-flight weather briefing.

18:34:34 UTC

KBOS METAR
General Edward Lawrence Logan International Airport
Boston, Massachusetts, USA
Current

41 mins ago

KBOS 221754Z 33009KT 10SM SCT045 BKN250 07/M06 A3029 RMK AO2 SLP256 T00671061 10067 20039 50002
Observed
Feb-22 @ 17:54 UTC
Wind
  • 330° at 9 KTS
Visibility
10 SM
Flight Rules
VFR
Cloud Levels
  • Scattered at 4,500' AGL
  • Broken at 25,000' AGL
Temperature
C / 45°F
Dewpoint
-6°C / 21°F
Humidity
39%
Altimeter
30.29" Hg
Pressure
1025.6 hPa
Previous

2 hours ago

KBOS 221654Z 29010KT 10SM SCT045 BKN250 06/M06 A3031 RMK AO2 SLP263 T00561061
Observed
Feb-22 @ 16:54 UTC
Wind
  • 290° at 10 KTS
Visibility
10 SM
Flight Rules
VFR
Cloud Levels
  • Scattered at 4,500' AGL
  • Broken at 25,000' AGL
Temperature
C / 43°F
Dewpoint
-6°C / 21°F
Humidity
42%
Altimeter
30.31" Hg
Pressure
1026.3 hPa
Previous

3 hours ago

KBOS 221554Z 33011KT 10SM FEW040 BKN250 06/M06 A3030 RMK AO2 SLP259 T00561061
Observed
Feb-22 @ 15:54 UTC
Wind
  • 330° at 11 KTS
Visibility
10 SM
Flight Rules
VFR
Cloud Levels
  • Few at 4,000' AGL
  • Broken at 25,000' AGL
Temperature
C / 43°F
Dewpoint
-6°C / 21°F
Humidity
42%
Altimeter
30.3" Hg
Pressure
1025.9 hPa